sensor_id;sensor_type;location;lat;lon;timestamp;P1;durP1;ratioP1;P2;durP2;ratioP2
50585;SDS011;36542;51.700;8.846;2023-05-14T00:02:08;10.90;;;8.63;;
50585;SDS011;36542;51.700;8.846;2023-05-14T00:04:34;10.63;;;7.87;;
50585;SDS011;36542;51.700;8.846;2023-05-14T00:06:59;10.57;;;8.77;;
50585;SDS011;36542;51.700;8.846;2023-05-14T00:09:25;10.50;;;8.43;;
50585;SDS011;36542;51.700;8.846;2023-05-14T00:11:50;9.77;;;8.60;;
50585;SDS011;36542;51.700;8.846;2023-05-14T00:14:16;8.80;;;8.00;;
50585;SDS011;36542;51.700;8.846;2023-05-14T00:16:42;10.43;;;8.50;;
50585;SDS011;36542;51.700;8.846;2023-05-14T00:19:07;10.60;;;8.50;;
50585;SDS011;36542;51.700;8.846;2023-05-14T00:21:33;10.97;;;8.27;;
50585;SDS011;36542;51.700;8.846;2023-05-14T00:23:58;9.80;;;8.40;;
50585;SDS011;36542;51.700;8.846;2023-05-14T00:26:24;9.63;;;8.63;;
50585;SDS011;36542;51.700;8.846;2023-05-14T00:28:49;9.77;;;8.40;;
50585;SDS011;36542;51.700;8.846;2023-05-14T00:31:15;10.17;;;8.23;;
50585;SDS011;36542;51.700;8.846;2023-05-14T00:33:40;9.37;;;8.47;;
50585;SDS011;36542;51.700;8.846;2023-05-14T00:36:06;10.67;;;8.37;;
50585;SDS011;36542;51.700;8.846;2023-05-14T00:38:32;11.57;;;9.30;;
50585;SDS011;36542;51.700;8.846;2023-05-14T00:40:57;9.30;;;8.40;;
50585;SDS011;36542;51.700;8.846;2023-05-14T00:43:22;11.23;;;8.90;;
50585;SDS011;36542;51.700;8.846;2023-05-14T00:45:49;9.60;;;8.70;;
50585;SDS011;36542;51.700;8.846;2023-05-14T00:48:17;9.60;;;8.63;;
50585;SDS011;36542;51.700;8.846;2023-05-14T00:50:44;12.67;;;9.00;;
50585;SDS011;36542;51.700;8.846;2023-05-14T00:53:09;10.73;;;9.30;;
50585;SDS011;36542;51.700;8.846;2023-05-14T00:55:40;10.83;;;8.93;;
50585;SDS011;36542;51.700;8.846;2023-05-14T00:58:08;12.93;;;8.97;;
50585;SDS011;36542;51.700;8.846;2023-05-14T01:00:36;11.57;;;8.93;;
50585;SDS011;36542;51.700;8.846;2023-05-14T01:03:02;10.07;;;9.07;;
50585;SDS011;36542;51.700;8.846;2023-05-14T01:11:20;9.87;;;8.77;;
50585;SDS011;36542;51.700;8.846;2023-05-14T01:14:03;9.80;;;8.87;;
50585;SDS011;36542;51.700;8.846;2023-05-14T01:16:37;10.60;;;8.50;;
50585;SDS011;36542;51.700;8.846;2023-05-14T01:19:04;10.23;;;8.57;;
50585;SDS011;36542;51.700;8.846;2023-05-14T01:24:02;9.90;;;8.87;;
50585;SDS011;36542;51.700;8.846;2023-05-14T01:26:28;9.77;;;8.77;;
50585;SDS011;36542;51.700;8.846;2023-05-14T01:28:55;10.43;;;8.17;;
50585;SDS011;36542;51.700;8.846;2023-05-14T01:31:26;9.53;;;8.57;;
50585;SDS011;36542;51.700;8.846;2023-05-14T01:33:56;11.73;;;9.33;;
50585;SDS011;36542;51.700;8.846;2023-05-14T01:36:22;10.40;;;8.80;;
50585;SDS011;36542;51.700;8.846;2023-05-14T01:38:48;9.77;;;8.73;;
50585;SDS011;36542;51.700;8.846;2023-05-14T01:41:15;10.43;;;9.30;;
50585;SDS011;36542;51.700;8.846;2023-05-14T01:43:42;11.23;;;10.13;;
50585;SDS011;36542;51.700;8.846;2023-05-14T01:46:08;10.07;;;9.03;;
50585;SDS011;36542;51.700;8.846;2023-05-14T01:48:34;11.30;;;9.00;;
50585;SDS011;36542;51.700;8.846;2023-05-14T01:50:59;10.70;;;9.57;;
50585;SDS011;36542;51.700;8.846;2023-05-14T01:53:26;12.13;;;9.53;;
50585;SDS011;36542;51.700;8.846;2023-05-14T01:55:51;12.93;;;9.27;;
50585;SDS011;36542;51.700;8.846;2023-05-14T01:58:17;10.60;;;9.50;;
50585;SDS011;36542;51.700;8.846;2023-05-14T02:00:43;12.20;;;9.97;;
50585;SDS011;36542;51.700;8.846;2023-05-14T02:03:09;11.80;;;9.00;;
50585;SDS011;36542;51.700;8.846;2023-05-14T02:05:34;10.37;;;9.33;;
50585;SDS011;36542;51.700;8.846;2023-05-14T02:08:00;11.37;;;9.33;;
50585;SDS011;36542;51.700;8.846;2023-05-14T02:10:25;12.03;;;10.07;;
50585;SDS011;36542;51.700;8.846;2023-05-14T02:12:51;10.13;;;9.10;;
50585;SDS011;36542;51.700;8.846;2023-05-14T02:15:16;11.00;;;8.67;;
50585;SDS011;36542;51.700;8.846;2023-05-14T02:17:42;11.47;;;9.50;;
50585;SDS011;36542;51.700;8.846;2023-05-14T02:20:07;9.90;;;8.30;;
50585;SDS011;36542;51.700;8.846;2023-05-14T02:22:34;11.17;;;8.90;;
50585;SDS011;36542;51.700;8.846;2023-05-14T02:24:59;9.67;;;8.77;;
50585;SDS011;36542;51.700;8.846;2023-05-14T02:27:25;10.33;;;9.27;;
50585;SDS011;36542;51.700;8.846;2023-05-14T02:29:51;10.53;;;9.07;;
50585;SDS011;36542;51.700;8.846;2023-05-14T02:32:16;14.20;;;8.97;;
50585;SDS011;36542;51.700;8.846;2023-05-14T02:34:42;12.40;;;9.63;;
50585;SDS011;36542;51.700;8.846;2023-05-14T02:37:07;10.10;;;9.00;;
50585;SDS011;36542;51.700;8.846;2023-05-14T02:39:33;11.33;;;9.33;;
50585;SDS011;36542;51.700;8.846;2023-05-14T02:41:58;10.93;;;9.50;;
50585;SDS011;36542;51.700;8.846;2023-05-14T02:44:24;10.30;;;9.17;;
50585;SDS011;36542;51.700;8.846;2023-05-14T02:46:49;9.33;;;8.43;;
50585;SDS011;36542;51.700;8.846;2023-05-14T02:49:15;10.30;;;8.63;;
50585;SDS011;36542;51.700;8.846;2023-05-14T02:51:40;12.93;;;9.30;;
50585;SDS011;36542;51.700;8.846;2023-05-14T02:54:06;10.20;;;9.10;;
50585;SDS011;36542;51.700;8.846;2023-05-14T02:56:31;10.40;;;8.50;;
50585;SDS011;36542;51.700;8.846;2023-05-14T02:58:57;13.90;;;9.50;;
50585;SDS011;36542;51.700;8.846;2023-05-14T03:01:22;11.17;;;8.67;;
50585;SDS011;36542;51.700;8.846;2023-05-14T03:03:48;10.60;;;9.27;;
50585;SDS011;36542;51.700;8.846;2023-05-14T03:06:13;10.30;;;9.33;;
50585;SDS011;36542;51.700;8.846;2023-05-14T03:08:39;10.17;;;9.27;;
50585;SDS011;36542;51.700;8.846;2023-05-14T03:11:05;11.20;;;8.40;;
50585;SDS011;36542;51.700;8.846;2023-05-14T03:13:31;12.73;;;10.00;;
50585;SDS011;36542;51.700;8.846;2023-05-14T03:15:56;10.90;;;9.30;;
50585;SDS011;36542;51.700;8.846;2023-05-14T03:18:21;10.17;;;9.10;;
50585;SDS011;36542;51.700;8.846;2023-05-14T03:20:47;12.50;;;10.00;;
50585;SDS011;36542;51.700;8.846;2023-05-14T03:23:13;11.43;;;9.23;;
50585;SDS011;36542;51.700;8.846;2023-05-14T03:25:39;12.93;;;10.00;;
50585;SDS011;36542;51.700;8.846;2023-05-14T03:28:04;11.23;;;9.27;;
50585;SDS011;36542;51.700;8.846;2023-05-14T03:30:30;10.53;;;9.50;;
50585;SDS011;36542;51.700;8.846;2023-05-14T03:32:55;13.10;;;9.73;;
50585;SDS011;36542;51.700;8.846;2023-05-14T03:35:21;11.03;;;9.93;;
50585;SDS011;36542;51.700;8.846;2023-05-14T03:37:47;10.90;;;9.80;;
50585;SDS011;36542;51.700;8.846;2023-05-14T03:40:13;11.67;;;10.47;;
50585;SDS011;36542;51.700;8.846;2023-05-14T03:42:38;11.73;;;9.57;;
50585;SDS011;36542;51.700;8.846;2023-05-14T03:45:04;11.87;;;10.67;;
50585;SDS011;36542;51.700;8.846;2023-05-14T03:47:30;13.07;;;10.60;;
50585;SDS011;36542;51.700;8.846;2023-05-14T03:49:56;12.07;;;9.37;;
50585;SDS011;36542;51.700;8.846;2023-05-14T03:52:22;12.77;;;10.47;;
50585;SDS011;36542;51.700;8.846;2023-05-14T03:54:48;11.53;;;9.83;;
50585;SDS011;36542;51.700;8.846;2023-05-14T03:57:13;12.60;;;10.23;;
50585;SDS011;36542;51.700;8.846;2023-05-14T03:59:38;10.63;;;9.40;;
50585;SDS011;36542;51.700;8.846;2023-05-14T04:02:04;10.57;;;9.57;;
50585;SDS011;36542;51.700;8.846;2023-05-14T04:04:29;10.83;;;9.73;;
50585;SDS011;36542;51.700;8.846;2023-05-14T04:06:55;13.20;;;10.13;;
50585;SDS011;36542;51.700;8.846;2023-05-14T04:09:20;11.67;;;10.47;;
50585;SDS011;36542;51.700;8.846;2023-05-14T04:11:46;14.13;;;9.90;;
50585;SDS011;36542;51.700;8.846;2023-05-14T04:14:11;12.03;;;10.53;;
50585;SDS011;36542;51.700;8.846;2023-05-14T04:16:37;12.77;;;10.33;;
50585;SDS011;36542;51.700;8.846;2023-05-14T04:19:02;10.83;;;9.67;;
50585;SDS011;36542;51.700;8.846;2023-05-14T04:21:31;11.73;;;10.53;;
50585;SDS011;36542;51.700;8.846;2023-05-14T04:23:56;10.33;;;9.10;;
50585;SDS011;36542;51.700;8.846;2023-05-14T04:26:22;10.60;;;9.50;;
50585;SDS011;36542;51.700;8.846;2023-05-14T04:28:47;10.20;;;9.20;;
50585;SDS011;36542;51.700;8.846;2023-05-14T04:31:14;10.33;;;8.73;;
50585;SDS011;36542;51.700;8.846;2023-05-14T04:33:39;11.30;;;9.23;;
50585;SDS011;36542;51.700;8.846;2023-05-14T04:36:05;10.17;;;9.00;;
50585;SDS011;36542;51.700;8.846;2023-05-14T04:38:31;12.73;;;8.73;;
50585;SDS011;36542;51.700;8.846;2023-05-14T04:40:56;10.10;;;9.03;;
50585;SDS011;36542;51.700;8.846;2023-05-14T04:43:22;9.00;;;8.10;;
50585;SDS011;36542;51.700;8.846;2023-05-14T04:45:47;11.33;;;9.23;;
50585;SDS011;36542;51.700;8.846;2023-05-14T04:48:13;10.63;;;8.30;;
50585;SDS011;36542;51.700;8.846;2023-05-14T04:50:38;10.90;;;8.90;;
50585;SDS011;36542;51.700;8.846;2023-05-14T04:53:04;9.77;;;8.77;;
50585;SDS011;36542;51.700;8.846;2023-05-14T04:55:29;9.80;;;8.90;;
50585;SDS011;36542;51.700;8.846;2023-05-14T04:57:55;9.97;;;8.97;;
50585;SDS011;36542;51.700;8.846;2023-05-14T05:00:20;9.60;;;8.70;;
50585;SDS011;36542;51.700;8.846;2023-05-14T05:02:47;9.23;;;8.33;;
50585;SDS011;36542;51.700;8.846;2023-05-14T05:05:12;9.63;;;8.43;;
50585;SDS011;36542;51.700;8.846;2023-05-14T05:07:38;8.83;;;7.80;;
50585;SDS011;36542;51.700;8.846;2023-05-14T05:10:03;10.10;;;8.90;;
50585;SDS011;36542;51.700;8.846;2023-05-14T05:12:29;9.30;;;8.40;;
50585;SDS011;36542;51.700;8.846;2023-05-14T05:14:55;9.17;;;7.73;;
50585;SDS011;36542;51.700;8.846;2023-05-14T05:17:21;9.17;;;7.80;;
50585;SDS011;36542;51.700;8.846;2023-05-14T05:19:47;8.57;;;7.67;;
50585;SDS011;36542;51.700;8.846;2023-05-14T05:22:13;8.63;;;7.83;;
50585;SDS011;36542;51.700;8.846;2023-05-14T05:24:39;8.57;;;7.70;;
50585;SDS011;36542;51.700;8.846;2023-05-14T05:27:04;8.47;;;7.67;;
50585;SDS011;36542;51.700;8.846;2023-05-14T05:29:30;8.63;;;7.47;;
50585;SDS011;36542;51.700;8.846;2023-05-14T05:31:55;8.60;;;7.83;;
50585;SDS011;36542;51.700;8.846;2023-05-14T05:34:21;8.10;;;7.30;;
50585;SDS011;36542;51.700;8.846;2023-05-14T05:36:47;9.10;;;6.37;;
50585;SDS011;36542;51.700;8.846;2023-05-14T05:39:12;6.53;;;5.90;;
50585;SDS011;36542;51.700;8.846;2023-05-14T05:41:38;6.20;;;5.67;;
50585;SDS011;36542;51.700;8.846;2023-05-14T05:44:03;7.43;;;6.27;;
50585;SDS011;36542;51.700;8.846;2023-05-14T05:46:29;5.83;;;5.33;;
50585;SDS011;36542;51.700;8.846;2023-05-14T05:48:54;5.70;;;5.20;;
50585;SDS011;36542;51.700;8.846;2023-05-14T05:51:19;5.67;;;5.17;;
50585;SDS011;36542;51.700;8.846;2023-05-14T05:53:45;5.80;;;5.30;;
50585;SDS011;36542;51.700;8.846;2023-05-14T05:56:11;5.57;;;5.07;;
50585;SDS011;36542;51.700;8.846;2023-05-14T05:58:37;5.83;;;5.33;;
50585;SDS011;36542;51.700;8.846;2023-05-14T06:01:02;6.33;;;5.73;;
50585;SDS011;36542;51.700;8.846;2023-05-14T06:03:28;5.47;;;4.93;;
50585;SDS011;36542;51.700;8.846;2023-05-14T06:05:53;7.60;;;5.60;;
50585;SDS011;36542;51.700;8.846;2023-05-14T06:08:19;6.30;;;5.70;;
50585;SDS011;36542;51.700;8.846;2023-05-14T06:10:44;5.40;;;4.90;;
50585;SDS011;36542;51.700;8.846;2023-05-14T06:13:10;7.37;;;5.60;;
50585;SDS011;36542;51.700;8.846;2023-05-14T06:15:36;7.23;;;5.97;;
50585;SDS011;36542;51.700;8.846;2023-05-14T06:18:01;5.40;;;4.97;;
50585;SDS011;36542;51.700;8.846;2023-05-14T06:20:27;4.67;;;4.27;;
50585;SDS011;36542;51.700;8.846;2023-05-14T06:22:52;5.93;;;5.03;;
50585;SDS011;36542;51.700;8.846;2023-05-14T06:25:18;4.90;;;4.50;;
50585;SDS011;36542;51.700;8.846;2023-05-14T06:27:43;4.88;;;4.45;;
50585;SDS011;36542;51.700;8.846;2023-05-14T06:30:09;5.50;;;5.00;;
50585;SDS011;36542;51.700;8.846;2023-05-14T06:32:35;5.57;;;4.70;;
50585;SDS011;36542;51.700;8.846;2023-05-14T06:35:01;4.82;;;4.43;;
50585;SDS011;36542;51.700;8.846;2023-05-14T06:37:26;7.05;;;4.80;;
50585;SDS011;36542;51.700;8.846;2023-05-14T06:39:52;5.13;;;4.72;;
50585;SDS011;36542;51.700;8.846;2023-05-14T06:42:17;6.05;;;4.60;;
50585;SDS011;36542;51.700;8.846;2023-05-14T06:44:43;5.65;;;4.80;;
50585;SDS011;36542;51.700;8.846;2023-05-14T06:47:09;5.28;;;4.88;;
50585;SDS011;36542;51.700;8.846;2023-05-14T06:49:35;5.00;;;4.53;;
50585;SDS011;36542;51.700;8.846;2023-05-14T06:52:01;6.85;;;5.22;;
50585;SDS011;36542;51.700;8.846;2023-05-14T06:54:26;5.95;;;5.03;;
50585;SDS011;36542;51.700;8.846;2023-05-14T06:56:52;5.53;;;4.97;;
50585;SDS011;36542;51.700;8.846;2023-05-14T06:59:18;5.47;;;4.97;;
50585;SDS011;36542;51.700;8.846;2023-05-14T07:01:43;5.82;;;5.32;;
50585;SDS011;36542;51.700;8.846;2023-05-14T07:04:09;6.07;;;5.18;;
50585;SDS011;36542;51.700;8.846;2023-05-14T07:06:34;5.70;;;5.10;;
50585;SDS011;36542;51.700;8.846;2023-05-14T07:09:00;6.15;;;5.30;;
50585;SDS011;36542;51.700;8.846;2023-05-14T07:11:26;5.72;;;4.97;;
50585;SDS011;36542;51.700;8.846;2023-05-14T07:13:51;5.53;;;5.03;;
50585;SDS011;36542;51.700;8.846;2023-05-14T07:16:16;6.07;;;5.18;;
50585;SDS011;36542;51.700;8.846;2023-05-14T07:18:43;5.65;;;5.15;;
50585;SDS011;36542;51.700;8.846;2023-05-14T07:21:09;5.38;;;4.60;;
50585;SDS011;36542;51.700;8.846;2023-05-14T07:23:35;5.47;;;4.82;;
50585;SDS011;36542;51.700;8.846;2023-05-14T07:26:02;5.72;;;5.18;;
50585;SDS011;36542;51.700;8.846;2023-05-14T07:28:29;6.37;;;5.53;;
50585;SDS011;36542;51.700;8.846;2023-05-14T07:30:54;7.87;;;5.90;;
50585;SDS011;36542;51.700;8.846;2023-05-14T07:33:20;6.03;;;5.53;;
50585;SDS011;36542;51.700;8.846;2023-05-14T07:35:46;8.13;;;6.30;;
50585;SDS011;36542;51.700;8.846;2023-05-14T07:38:12;7.13;;;6.43;;
50585;SDS011;36542;51.700;8.846;2023-05-14T07:40:37;6.43;;;5.83;;
50585;SDS011;36542;51.700;8.846;2023-05-14T07:43:03;8.60;;;6.20;;
50585;SDS011;36542;51.700;8.846;2023-05-14T07:45:28;6.07;;;5.47;;
50585;SDS011;36542;51.700;8.846;2023-05-14T07:47:54;6.50;;;5.90;;
50585;SDS011;36542;51.700;8.846;2023-05-14T07:50:20;6.80;;;6.03;;
50585;SDS011;36542;51.700;8.846;2023-05-14T07:52:46;5.87;;;5.37;;
50585;SDS011;36542;51.700;8.846;2023-05-14T07:55:11;5.80;;;5.30;;
50585;SDS011;36542;51.700;8.846;2023-05-14T07:57:37;5.67;;;5.07;;
50585;SDS011;36542;51.700;8.846;2023-05-14T08:00:03;5.32;;;4.82;;
50585;SDS011;36542;51.700;8.846;2023-05-14T08:02:31;6.40;;;4.75;;
50585;SDS011;36542;51.700;8.846;2023-05-14T08:04:57;5.65;;;4.57;;
50585;SDS011;36542;51.700;8.846;2023-05-14T08:07:23;4.60;;;4.20;;
50585;SDS011;36542;51.700;8.846;2023-05-14T08:09:48;4.95;;;4.22;;
50585;SDS011;36542;51.700;8.846;2023-05-14T08:12:14;4.40;;;4.00;;
50585;SDS011;36542;51.700;8.846;2023-05-14T08:14:40;4.00;;;3.55;;
50585;SDS011;36542;51.700;8.846;2023-05-14T08:17:05;4.15;;;3.75;;
50585;SDS011;36542;51.700;8.846;2023-05-14T08:19:31;4.85;;;4.15;;
50585;SDS011;36542;51.700;8.846;2023-05-14T08:21:56;4.97;;;3.70;;
50585;SDS011;36542;51.700;8.846;2023-05-14T08:24:22;3.00;;;2.80;;
50585;SDS011;36542;51.700;8.846;2023-05-14T08:26:47;3.45;;;3.15;;
50585;SDS011;36542;51.700;8.846;2023-05-14T08:29:13;3.83;;;3.33;;
50585;SDS011;36542;51.700;8.846;2023-05-14T08:31:39;3.50;;;3.20;;
50585;SDS011;36542;51.700;8.846;2023-05-14T08:34:04;3.78;;;3.00;;
50585;SDS011;36542;51.700;8.846;2023-05-14T08:36:30;4.60;;;3.00;;
50585;SDS011;36542;51.700;8.846;2023-05-14T08:38:56;3.22;;;2.92;;
50585;SDS011;36542;51.700;8.846;2023-05-14T08:41:22;3.08;;;2.80;;
50585;SDS011;36542;51.700;8.846;2023-05-14T08:46:33;2.78;;;2.58;;
50585;SDS011;36542;51.700;8.846;2023-05-14T08:49:20;4.97;;;3.08;;
50585;SDS011;36542;51.700;8.846;2023-05-14T08:51:53;2.55;;;2.25;;
50585;SDS011;36542;51.700;8.846;2023-05-14T08:54:20;2.67;;;2.47;;
50585;SDS011;36542;51.700;8.846;2023-05-14T08:56:48;2.95;;;2.75;;
50585;SDS011;36542;51.700;8.846;2023-05-14T08:59:15;3.15;;;2.50;;
50585;SDS011;36542;51.700;8.846;2023-05-14T09:01:51;2.95;;;2.22;;
50585;SDS011;36542;51.700;8.846;2023-05-14T09:04:21;2.78;;;2.45;;
50585;SDS011;36542;51.700;8.846;2023-05-14T09:06:48;2.53;;;2.33;;
50585;SDS011;36542;51.700;8.846;2023-05-14T09:09:15;2.63;;;2.30;;
50585;SDS011;36542;51.700;8.846;2023-05-14T09:11:41;2.10;;;2.00;;
50585;SDS011;36542;51.700;8.846;2023-05-14T09:14:09;2.15;;;1.98;;
50585;SDS011;36542;51.700;8.846;2023-05-14T09:16:35;1.70;;;1.60;;
50585;SDS011;36542;51.700;8.846;2023-05-14T09:19:01;2.22;;;2.00;;
50585;SDS011;36542;51.700;8.846;2023-05-14T09:21:28;2.10;;;1.90;;
50585;SDS011;36542;51.700;8.846;2023-05-14T09:23:55;2.35;;;1.63;;
50585;SDS011;36542;51.700;8.846;2023-05-14T09:26:25;2.47;;;2.33;;
50585;SDS011;36542;51.700;8.846;2023-05-14T09:28:55;3.35;;;2.50;;
50585;SDS011;36542;51.700;8.846;2023-05-14T09:31:21;3.85;;;2.30;;
50585;SDS011;36542;51.700;8.846;2023-05-14T09:33:50;5.10;;;2.80;;
50585;SDS011;36542;51.700;8.846;2023-05-14T09:36:16;3.10;;;2.90;;
50585;SDS011;36542;51.700;8.846;2023-05-14T09:38:42;4.85;;;3.10;;
50585;SDS011;36542;51.700;8.846;2023-05-14T09:41:08;3.17;;;2.88;;
50585;SDS011;36542;51.700;8.846;2023-05-14T09:43:33;2.85;;;2.55;;
50585;SDS011;36542;51.700;8.846;2023-05-14T09:45:59;3.10;;;2.83;;
50585;SDS011;36542;51.700;8.846;2023-05-14T09:48:24;2.45;;;2.25;;
50585;SDS011;36542;51.700;8.846;2023-05-14T09:50:50;2.10;;;1.90;;
50585;SDS011;36542;51.700;8.846;2023-05-14T09:53:16;1.70;;;1.60;;
50585;SDS011;36542;51.700;8.846;2023-05-14T09:55:43;2.53;;;2.22;;
50585;SDS011;36542;51.700;8.846;2023-05-14T09:58:09;2.53;;;2.03;;
50585;SDS011;36542;51.700;8.846;2023-05-14T10:00:35;2.05;;;1.95;;
50585;SDS011;36542;51.700;8.846;2023-05-14T10:03:05;2.47;;;2.25;;
50585;SDS011;36542;51.700;8.846;2023-05-14T10:05:35;3.00;;;2.40;;
50585;SDS011;36542;51.700;8.846;2023-05-14T10:08:17;2.33;;;2.13;;
50585;SDS011;36542;51.700;8.846;2023-05-14T10:10:50;2.10;;;2.00;;
50585;SDS011;36542;51.700;8.846;2023-05-14T10:13:19;1.80;;;1.70;;
50585;SDS011;36542;51.700;8.846;2023-05-14T10:15:56;1.90;;;1.80;;
50585;SDS011;36542;51.700;8.846;2023-05-14T10:18:33;1.60;;;1.50;;
50585;SDS011;36542;51.700;8.846;2023-05-14T10:21:05;1.92;;;1.83;;
50585;SDS011;36542;51.700;8.846;2023-05-14T10:23:32;2.20;;;2.10;;
50585;SDS011;36542;51.700;8.846;2023-05-14T10:26:01;2.25;;;2.05;;
50585;SDS011;36542;51.700;8.846;2023-05-14T10:28:28;2.55;;;2.03;;
50585;SDS011;36542;51.700;8.846;2023-05-14T10:30:54;2.30;;;2.10;;
50585;SDS011;36542;51.700;8.846;2023-05-14T10:33:20;3.25;;;1.90;;
50585;SDS011;36542;51.700;8.846;2023-05-14T10:38:26;2.10;;;1.88;;
50585;SDS011;36542;51.700;8.846;2023-05-14T10:40:54;2.30;;;2.10;;
50585;SDS011;36542;51.700;8.846;2023-05-14T10:43:42;2.00;;;1.90;;
50585;SDS011;36542;51.700;8.846;2023-05-14T10:46:09;1.90;;;1.80;;
50585;SDS011;36542;51.700;8.846;2023-05-14T10:48:37;1.90;;;1.80;;
50585;SDS011;36542;51.700;8.846;2023-05-14T10:51:06;1.70;;;1.55;;
50585;SDS011;36542;51.700;8.846;2023-05-14T10:53:37;1.60;;;1.50;;
50585;SDS011;36542;51.700;8.846;2023-05-14T10:56:05;1.70;;;1.60;;
50585;SDS011;36542;51.700;8.846;2023-05-14T10:58:34;1.50;;;1.40;;
50585;SDS011;36542;51.700;8.846;2023-05-14T11:01:00;1.70;;;1.60;;
50585;SDS011;36542;51.700;8.846;2023-05-14T11:03:29;2.28;;;2.05;;
50585;SDS011;36542;51.700;8.846;2023-05-14T11:05:58;2.15;;;1.95;;
50585;SDS011;36542;51.700;8.846;2023-05-14T11:08:27;2.45;;;2.25;;
50585;SDS011;36542;51.700;8.846;2023-05-14T11:10:53;2.03;;;1.88;;
50585;SDS011;36542;51.700;8.846;2023-05-14T11:13:19;2.25;;;2.05;;
50585;SDS011;36542;51.700;8.846;2023-05-14T11:15:45;2.35;;;2.05;;
50585;SDS011;36542;51.700;8.846;2023-05-14T11:18:12;2.53;;;2.33;;
50585;SDS011;36542;51.700;8.846;2023-05-14T11:20:37;1.90;;;1.80;;
50585;SDS011;36542;51.700;8.846;2023-05-14T11:23:03;2.20;;;2.00;;
50585;SDS011;36542;51.700;8.846;2023-05-14T11:25:28;3.08;;;2.08;;
50585;SDS011;36542;51.700;8.846;2023-05-14T11:27:54;2.30;;;2.10;;
50585;SDS011;36542;51.700;8.846;2023-05-14T11:30:22;2.97;;;2.00;;
50585;SDS011;36542;51.700;8.846;2023-05-14T11:32:48;2.20;;;2.10;;
50585;SDS011;36542;51.700;8.846;2023-05-14T11:35:14;2.60;;;2.40;;
50585;SDS011;36542;51.700;8.846;2023-05-14T11:37:41;2.53;;;2.30;;
50585;SDS011;36542;51.700;8.846;2023-05-14T11:40:07;2.80;;;2.60;;
50585;SDS011;36542;51.700;8.846;2023-05-14T11:42:38;4.88;;;2.88;;
50585;SDS011;36542;51.700;8.846;2023-05-14T11:45:04;3.10;;;2.65;;
50585;SDS011;36542;51.700;8.846;2023-05-14T11:47:30;4.05;;;2.42;;
50585;SDS011;36542;51.700;8.846;2023-05-14T11:49:55;2.38;;;2.28;;
50585;SDS011;36542;51.700;8.846;2023-05-14T11:52:22;4.97;;;2.47;;
50585;SDS011;36542;51.700;8.846;2023-05-14T11:54:48;2.88;;;2.67;;
50585;SDS011;36542;51.700;8.846;2023-05-14T11:57:15;2.30;;;2.20;;
50585;SDS011;36542;51.700;8.846;2023-05-14T11:59:42;2.17;;;2.08;;
50585;SDS011;36542;51.700;8.846;2023-05-14T12:02:12;2.40;;;2.20;;
50585;SDS011;36542;51.700;8.846;2023-05-14T12:04:39;2.42;;;2.22;;
50585;SDS011;36542;51.700;8.846;2023-05-14T12:07:07;2.25;;;2.15;;
50585;SDS011;36542;51.700;8.846;2023-05-14T12:09:37;2.30;;;2.10;;
50585;SDS011;36542;51.700;8.846;2023-05-14T12:12:08;2.30;;;1.95;;
50585;SDS011;36542;51.700;8.846;2023-05-14T12:14:38;2.45;;;2.25;;
50585;SDS011;36542;51.700;8.846;2023-05-14T12:19:46;2.72;;;2.17;;
50585;SDS011;36542;51.700;8.846;2023-05-14T12:22:13;3.10;;;2.80;;
50585;SDS011;36542;51.700;8.846;2023-05-14T12:24:41;2.65;;;2.33;;
50585;SDS011;36542;51.700;8.846;2023-05-14T12:27:08;2.60;;;2.40;;
50585;SDS011;36542;51.700;8.846;2023-05-14T12:29:35;4.70;;;2.60;;
50585;SDS011;36542;51.700;8.846;2023-05-14T12:32:02;2.35;;;2.20;;
50585;SDS011;36542;51.700;8.846;2023-05-14T12:34:32;2.70;;;2.50;;
50585;SDS011;36542;51.700;8.846;2023-05-14T12:36:58;2.97;;;2.67;;
50585;SDS011;36542;51.700;8.846;2023-05-14T12:39:23;2.63;;;2.43;;
50585;SDS011;36542;51.700;8.846;2023-05-14T12:41:48;2.60;;;2.40;;
50585;SDS011;36542;51.700;8.846;2023-05-14T12:44:14;2.60;;;2.40;;
50585;SDS011;36542;51.700;8.846;2023-05-14T12:46:39;3.08;;;2.88;;
50585;SDS011;36542;51.700;8.846;2023-05-14T12:49:05;3.03;;;2.83;;
50585;SDS011;36542;51.700;8.846;2023-05-14T12:51:31;2.67;;;2.47;;
50585;SDS011;36542;51.700;8.846;2023-05-14T12:53:56;3.47;;;2.70;;
50585;SDS011;36542;51.700;8.846;2023-05-14T12:56:21;2.77;;;2.47;;
50585;SDS011;36542;51.700;8.846;2023-05-14T12:58:51;3.40;;;3.10;;
50585;SDS011;36542;51.700;8.846;2023-05-14T13:01:18;2.80;;;2.53;;
50585;SDS011;36542;51.700;8.846;2023-05-14T13:03:44;2.87;;;2.67;;
50585;SDS011;36542;51.700;8.846;2023-05-14T13:06:09;3.00;;;2.70;;
50585;SDS011;36542;51.700;8.846;2023-05-14T13:08:35;3.15;;;2.85;;
50585;SDS011;36542;51.700;8.846;2023-05-14T13:11:00;3.10;;;2.90;;
50585;SDS011;36542;51.700;8.846;2023-05-14T13:13:26;3.25;;;2.97;;
50585;SDS011;36542;51.700;8.846;2023-05-14T13:15:51;5.45;;;2.95;;
50585;SDS011;36542;51.700;8.846;2023-05-14T13:18:17;4.22;;;2.97;;
50585;SDS011;36542;51.700;8.846;2023-05-14T13:20:43;4.28;;;3.22;;
50585;SDS011;36542;51.700;8.846;2023-05-14T13:23:09;3.13;;;2.70;;
50585;SDS011;36542;51.700;8.846;2023-05-14T13:25:35;4.15;;;2.90;;
50585;SDS011;36542;51.700;8.846;2023-05-14T13:28:01;3.50;;;3.20;;
50585;SDS011;36542;51.700;8.846;2023-05-14T13:30:26;3.53;;;3.22;;
50585;SDS011;36542;51.700;8.846;2023-05-14T13:32:52;4.07;;;3.23;;
50585;SDS011;36542;51.700;8.846;2023-05-14T13:35:17;3.40;;;3.20;;
50585;SDS011;36542;51.700;8.846;2023-05-14T13:37:43;3.53;;;3.00;;
50585;SDS011;36542;51.700;8.846;2023-05-14T13:40:08;4.60;;;4.20;;
50585;SDS011;36542;51.700;8.846;2023-05-14T13:42:35;4.20;;;3.80;;
50585;SDS011;36542;51.700;8.846;2023-05-14T13:45:01;4.87;;;4.43;;
50585;SDS011;36542;51.700;8.846;2023-05-14T13:47:27;4.70;;;4.30;;
50585;SDS011;36542;51.700;8.846;2023-05-14T13:49:53;6.53;;;5.10;;
50585;SDS011;36542;51.700;8.846;2023-05-14T13:52:19;4.57;;;3.83;;
50585;SDS011;36542;51.700;8.846;2023-05-14T13:54:45;4.90;;;4.40;;
50585;SDS011;36542;51.700;8.846;2023-05-14T13:57:10;5.10;;;4.70;;
50585;SDS011;36542;51.700;8.846;2023-05-14T13:59:36;6.13;;;5.00;;
50585;SDS011;36542;51.700;8.846;2023-05-14T14:02:01;5.23;;;4.77;;
50585;SDS011;36542;51.700;8.846;2023-05-14T14:04:27;4.10;;;3.73;;
50585;SDS011;36542;51.700;8.846;2023-05-14T14:06:53;4.10;;;3.60;;
50585;SDS011;36542;51.700;8.846;2023-05-14T14:09:19;5.97;;;3.67;;
50585;SDS011;36542;51.700;8.846;2023-05-14T14:11:44;3.00;;;2.80;;
50585;SDS011;36542;51.700;8.846;2023-05-14T14:14:10;4.07;;;3.73;;
50585;SDS011;36542;51.700;8.846;2023-05-14T14:16:36;3.90;;;3.40;;
50585;SDS011;36542;51.700;8.846;2023-05-14T14:19:01;3.03;;;2.73;;
50585;SDS011;36542;51.700;8.846;2023-05-14T14:21:27;3.63;;;3.13;;
50585;SDS011;36542;51.700;8.846;2023-05-14T14:23:52;2.87;;;2.67;;
50585;SDS011;36542;51.700;8.846;2023-05-14T14:26:17;3.50;;;3.20;;
50585;SDS011;36542;51.700;8.846;2023-05-14T14:28:43;3.63;;;3.30;;
50585;SDS011;36542;51.700;8.846;2023-05-14T14:31:09;3.03;;;2.83;;
50585;SDS011;36542;51.700;8.846;2023-05-14T14:33:34;3.00;;;2.77;;
50585;SDS011;36542;51.700;8.846;2023-05-14T14:36:00;4.53;;;3.33;;
50585;SDS011;36542;51.700;8.846;2023-05-14T14:38:26;4.03;;;3.13;;
50585;SDS011;36542;51.700;8.846;2023-05-14T14:40:51;3.20;;;2.90;;
50585;SDS011;36542;51.700;8.846;2023-05-14T14:43:17;3.10;;;2.80;;
50585;SDS011;36542;51.700;8.846;2023-05-14T14:45:42;2.67;;;2.47;;
50585;SDS011;36542;51.700;8.846;2023-05-14T14:48:20;2.90;;;2.70;;
50585;SDS011;36542;51.700;8.846;2023-05-14T14:50:47;2.73;;;2.53;;
50585;SDS011;36542;51.700;8.846;2023-05-14T14:53:13;3.13;;;2.40;;
50585;SDS011;36542;51.700;8.846;2023-05-14T14:55:38;2.70;;;2.50;;